sensor_id;sensor_type;location;lat;lon;timestamp;P1;durP1;ratioP1;P2;durP2;ratioP2
25391;SDS011;13329;48.402;11.718;2023-07-13T00:01:52;13.83;;;5.63;;
25391;SDS011;13329;48.402;11.718;2023-07-13T00:04:18;9.52;;;5.15;;
25391;SDS011;13329;48.402;11.718;2023-07-13T00:06:44;12.25;;;5.03;;
25391;SDS011;13329;48.402;11.718;2023-07-13T00:09:10;15.20;;;5.78;;
25391;SDS011;13329;48.402;11.718;2023-07-13T00:11:35;15.98;;;5.75;;
25391;SDS011;13329;48.402;11.718;2023-07-13T00:14:00;9.57;;;5.60;;
25391;SDS011;13329;48.402;11.718;2023-07-13T00:16:25;14.60;;;6.07;;
25391;SDS011;13329;48.402;11.718;2023-07-13T00:18:51;7.57;;;5.07;;
25391;SDS011;13329;48.402;11.718;2023-07-13T00:21:17;8.20;;;4.55;;
25391;SDS011;13329;48.402;11.718;2023-07-13T00:23:43;8.80;;;4.72;;
25391;SDS011;13329;48.402;11.718;2023-07-13T00:26:09;9.23;;;4.90;;
25391;SDS011;13329;48.402;11.718;2023-07-13T00:28:35;11.25;;;5.20;;
25391;SDS011;13329;48.402;11.718;2023-07-13T00:31:00;10.70;;;4.75;;
25391;SDS011;13329;48.402;11.718;2023-07-13T00:33:27;11.65;;;4.68;;
25391;SDS011;13329;48.402;11.718;2023-07-13T00:35:53;8.05;;;4.57;;
25391;SDS011;13329;48.402;11.718;2023-07-13T00:38:18;8.18;;;3.97;;
25391;SDS011;13329;48.402;11.718;2023-07-13T00:40:43;6.77;;;3.97;;
25391;SDS011;13329;48.402;11.718;2023-07-13T00:43:11;5.07;;;3.43;;
25391;SDS011;13329;48.402;11.718;2023-07-13T00:48:03;7.80;;;3.63;;
25391;SDS011;13329;48.402;11.718;2023-07-13T00:50:28;7.35;;;3.90;;
25391;SDS011;13329;48.402;11.718;2023-07-13T00:52:53;8.73;;;3.77;;
25391;SDS011;13329;48.402;11.718;2023-07-13T00:55:20;8.27;;;4.07;;
25391;SDS011;13329;48.402;11.718;2023-07-13T00:57:46;7.82;;;4.50;;
25391;SDS011;13329;48.402;11.718;2023-07-13T01:00:11;6.00;;;3.73;;
25391;SDS011;13329;48.402;11.718;2023-07-13T01:02:40;8.45;;;3.90;;
25391;SDS011;13329;48.402;11.718;2023-07-13T01:05:11;9.43;;;4.35;;
25391;SDS011;13329;48.402;11.718;2023-07-13T01:07:36;10.40;;;4.25;;
25391;SDS011;13329;48.402;11.718;2023-07-13T01:10:02;10.57;;;3.97;;
25391;SDS011;13329;48.402;11.718;2023-07-13T01:12:27;7.35;;;3.60;;
25391;SDS011;13329;48.402;11.718;2023-07-13T01:14:58;7.30;;;3.43;;
25391;SDS011;13329;48.402;11.718;2023-07-13T01:17:25;9.90;;;3.90;;
25391;SDS011;13329;48.402;11.718;2023-07-13T01:19:51;7.80;;;3.88;;
25391;SDS011;13329;48.402;11.718;2023-07-13T01:22:17;7.00;;;3.43;;
25391;SDS011;13329;48.402;11.718;2023-07-13T01:24:43;6.65;;;4.15;;
25391;SDS011;13329;48.402;11.718;2023-07-13T01:27:09;8.48;;;3.95;;
25391;SDS011;13329;48.402;11.718;2023-07-13T01:29:36;9.80;;;3.78;;
25391;SDS011;13329;48.402;11.718;2023-07-13T01:32:07;8.10;;;3.40;;
25391;SDS011;13329;48.402;11.718;2023-07-13T01:34:33;7.25;;;3.97;;
25391;SDS011;13329;48.402;11.718;2023-07-13T01:36:58;8.20;;;3.40;;
25391;SDS011;13329;48.402;11.718;2023-07-13T01:39:23;5.85;;;3.35;;
25391;SDS011;13329;48.402;11.718;2023-07-13T01:41:48;10.30;;;3.30;;
25391;SDS011;13329;48.402;11.718;2023-07-13T01:44:14;6.70;;;3.40;;
25391;SDS011;13329;48.402;11.718;2023-07-13T01:46:39;13.67;;;3.73;;
25391;SDS011;13329;48.402;11.718;2023-07-13T01:49:04;7.03;;;3.58;;
25391;SDS011;13329;48.402;11.718;2023-07-13T01:51:29;10.97;;;4.00;;
25391;SDS011;13329;48.402;11.718;2023-07-13T01:53:54;13.20;;;4.40;;
25391;SDS011;13329;48.402;11.718;2023-07-13T01:56:20;7.33;;;3.80;;
25391;SDS011;13329;48.402;11.718;2023-07-13T01:58:45;8.45;;;4.30;;
25391;SDS011;13329;48.402;11.718;2023-07-13T02:01:10;6.38;;;3.88;;
25391;SDS011;13329;48.402;11.718;2023-07-13T02:03:35;7.70;;;3.50;;
25391;SDS011;13329;48.402;11.718;2023-07-13T02:06:00;6.73;;;3.60;;
25391;SDS011;13329;48.402;11.718;2023-07-13T02:08:26;6.83;;;3.50;;
25391;SDS011;13329;48.402;11.718;2023-07-13T02:10:51;8.17;;;4.17;;
25391;SDS011;13329;48.402;11.718;2023-07-13T02:13:16;11.20;;;4.20;;
25391;SDS011;13329;48.402;11.718;2023-07-13T02:15:41;10.63;;;3.83;;
25391;SDS011;13329;48.402;11.718;2023-07-13T02:18:07;8.07;;;4.13;;
25391;SDS011;13329;48.402;11.718;2023-07-13T02:20:32;8.88;;;4.07;;
25391;SDS011;13329;48.402;11.718;2023-07-13T02:22:57;6.50;;;3.63;;
25391;SDS011;13329;48.402;11.718;2023-07-13T02:25:22;7.93;;;3.47;;
25391;SDS011;13329;48.402;11.718;2023-07-13T02:27:47;6.17;;;3.80;;
25391;SDS011;13329;48.402;11.718;2023-07-13T02:30:13;12.77;;;4.00;;
25391;SDS011;13329;48.402;11.718;2023-07-13T02:32:38;8.80;;;3.72;;
25391;SDS011;13329;48.402;11.718;2023-07-13T02:35:04;8.13;;;3.73;;
25391;SDS011;13329;48.402;11.718;2023-07-13T02:37:29;6.88;;;3.95;;
25391;SDS011;13329;48.402;11.718;2023-07-13T02:39:55;6.50;;;4.32;;
25391;SDS011;13329;48.402;11.718;2023-07-13T02:42:20;8.77;;;3.80;;
25391;SDS011;13329;48.402;11.718;2023-07-13T02:44:45;8.10;;;3.15;;
25391;SDS011;13329;48.402;11.718;2023-07-13T02:47:10;7.68;;;3.33;;
25391;SDS011;13329;48.402;11.718;2023-07-13T02:49:36;8.13;;;3.55;;
25391;SDS011;13329;48.402;11.718;2023-07-13T02:52:01;11.23;;;3.78;;
25391;SDS011;13329;48.402;11.718;2023-07-13T02:54:26;5.95;;;3.25;;
25391;SDS011;13329;48.402;11.718;2023-07-13T02:56:51;9.70;;;3.30;;
25391;SDS011;13329;48.402;11.718;2023-07-13T02:59:16;6.27;;;3.03;;
25391;SDS011;13329;48.402;11.718;2023-07-13T03:01:41;13.00;;;4.00;;
25391;SDS011;13329;48.402;11.718;2023-07-13T03:04:07;8.37;;;3.60;;
25391;SDS011;13329;48.402;11.718;2023-07-13T03:06:32;5.35;;;3.45;;
25391;SDS011;13329;48.402;11.718;2023-07-13T03:08:58;9.30;;;4.13;;
25391;SDS011;13329;48.402;11.718;2023-07-13T03:11:23;9.37;;;4.37;;
25391;SDS011;13329;48.402;11.718;2023-07-13T03:13:48;6.77;;;4.30;;
25391;SDS011;13329;48.402;11.718;2023-07-13T03:16:14;9.57;;;4.05;;
25391;SDS011;13329;48.402;11.718;2023-07-13T03:18:41;13.07;;;4.15;;
25391;SDS011;13329;48.402;11.718;2023-07-13T03:21:06;12.82;;;4.80;;
25391;SDS011;13329;48.402;11.718;2023-07-13T03:23:31;9.60;;;4.73;;
25391;SDS011;13329;48.402;11.718;2023-07-13T03:26:07;11.55;;;4.35;;
25391;SDS011;13329;48.402;11.718;2023-07-13T03:28:33;13.75;;;5.13;;
25391;SDS011;13329;48.402;11.718;2023-07-13T03:31:02;10.20;;;4.43;;
25391;SDS011;13329;48.402;11.718;2023-07-13T03:33:28;10.52;;;5.32;;
25391;SDS011;13329;48.402;11.718;2023-07-13T03:35:53;13.00;;;4.77;;
25391;SDS011;13329;48.402;11.718;2023-07-13T03:38:18;14.90;;;5.10;;
25391;SDS011;13329;48.402;11.718;2023-07-13T03:40:44;10.57;;;4.93;;
25391;SDS011;13329;48.402;11.718;2023-07-13T03:43:10;9.40;;;4.75;;
25391;SDS011;13329;48.402;11.718;2023-07-13T03:45:37;13.40;;;5.00;;
25391;SDS011;13329;48.402;11.718;2023-07-13T03:48:02;10.93;;;5.40;;
25391;SDS011;13329;48.402;11.718;2023-07-13T03:50:27;8.88;;;4.82;;
25391;SDS011;13329;48.402;11.718;2023-07-13T03:52:52;12.37;;;4.93;;
25391;SDS011;13329;48.402;11.718;2023-07-13T03:55:18;17.38;;;5.05;;
25391;SDS011;13329;48.402;11.718;2023-07-13T03:57:43;12.30;;;5.05;;
25391;SDS011;13329;48.402;11.718;2023-07-13T04:00:08;12.37;;;5.03;;
25391;SDS011;13329;48.402;11.718;2023-07-13T04:02:34;13.40;;;5.03;;
25391;SDS011;13329;48.402;11.718;2023-07-13T04:04:59;9.33;;;5.00;;
25391;SDS011;13329;48.402;11.718;2023-07-13T04:07:24;11.00;;;5.03;;
25391;SDS011;13329;48.402;11.718;2023-07-13T04:09:49;9.50;;;4.68;;
25391;SDS011;13329;48.402;11.718;2023-07-13T04:12:15;14.60;;;5.10;;
25391;SDS011;13329;48.402;11.718;2023-07-13T04:14:40;9.67;;;5.17;;
25391;SDS011;13329;48.402;11.718;2023-07-13T04:17:05;10.70;;;4.78;;
25391;SDS011;13329;48.402;11.718;2023-07-13T04:19:30;8.53;;;5.50;;
25391;SDS011;13329;48.402;11.718;2023-07-13T04:21:55;16.93;;;5.57;;
25391;SDS011;13329;48.402;11.718;2023-07-13T04:24:20;12.87;;;5.50;;
25391;SDS011;13329;48.402;11.718;2023-07-13T04:26:46;9.03;;;4.53;;
25391;SDS011;13329;48.402;11.718;2023-07-13T04:29:11;9.37;;;4.80;;
25391;SDS011;13329;48.402;11.718;2023-07-13T04:31:36;10.07;;;5.10;;
25391;SDS011;13329;48.402;11.718;2023-07-13T04:34:01;11.43;;;4.83;;
25391;SDS011;13329;48.402;11.718;2023-07-13T04:36:27;8.57;;;4.75;;
25391;SDS011;13329;48.402;11.718;2023-07-13T04:38:53;12.53;;;5.27;;
25391;SDS011;13329;48.402;11.718;2023-07-13T04:41:19;8.05;;;4.65;;
25391;SDS011;13329;48.402;11.718;2023-07-13T04:43:44;13.68;;;5.03;;
25391;SDS011;13329;48.402;11.718;2023-07-13T04:46:10;15.45;;;5.30;;
25391;SDS011;13329;48.402;11.718;2023-07-13T04:48:36;11.93;;;5.07;;
25391;SDS011;13329;48.402;11.718;2023-07-13T04:51:01;11.30;;;4.88;;
25391;SDS011;13329;48.402;11.718;2023-07-13T04:53:26;9.43;;;4.30;;
25391;SDS011;13329;48.402;11.718;2023-07-13T04:55:52;7.65;;;4.20;;
25391;SDS011;13329;48.402;11.718;2023-07-13T04:58:17;6.40;;;4.13;;
25391;SDS011;13329;48.402;11.718;2023-07-13T05:00:42;9.70;;;4.10;;
25391;SDS011;13329;48.402;11.718;2023-07-13T05:03:08;9.57;;;3.83;;
25391;SDS011;13329;48.402;11.718;2023-07-13T05:05:33;8.23;;;4.20;;
25391;SDS011;13329;48.402;11.718;2023-07-13T05:07:59;8.50;;;4.40;;
25391;SDS011;13329;48.402;11.718;2023-07-13T05:10:24;13.77;;;4.32;;
25391;SDS011;13329;48.402;11.718;2023-07-13T05:12:49;5.93;;;3.88;;
25391;SDS011;13329;48.402;11.718;2023-07-13T05:15:15;7.23;;;3.80;;
25391;SDS011;13329;48.402;11.718;2023-07-13T05:17:40;12.48;;;4.75;;
25391;SDS011;13329;48.402;11.718;2023-07-13T05:20:06;7.03;;;3.57;;
25391;SDS011;13329;48.402;11.718;2023-07-13T05:22:31;7.80;;;4.35;;
25391;SDS011;13329;48.402;11.718;2023-07-13T05:24:57;7.60;;;4.07;;
25391;SDS011;13329;48.402;11.718;2023-07-13T05:27:22;10.50;;;4.13;;
25391;SDS011;13329;48.402;11.718;2023-07-13T05:29:48;10.10;;;3.90;;
25391;SDS011;13329;48.402;11.718;2023-07-13T05:32:13;7.68;;;3.35;;
25391;SDS011;13329;48.402;11.718;2023-07-13T05:34:38;7.60;;;3.42;;
25391;SDS011;13329;48.402;11.718;2023-07-13T05:37:04;7.13;;;3.30;;
25391;SDS011;13329;48.402;11.718;2023-07-13T05:39:29;8.48;;;3.33;;
25391;SDS011;13329;48.402;11.718;2023-07-13T05:41:54;7.65;;;2.75;;
25391;SDS011;13329;48.402;11.718;2023-07-13T05:44:19;7.70;;;2.70;;
25391;SDS011;13329;48.402;11.718;2023-07-13T05:46:45;11.13;;;2.70;;
25391;SDS011;13329;48.402;11.718;2023-07-13T05:49:10;6.63;;;2.33;;
25391;SDS011;13329;48.402;11.718;2023-07-13T05:51:35;10.82;;;2.50;;
25391;SDS011;13329;48.402;11.718;2023-07-13T05:54:01;5.90;;;2.60;;
25391;SDS011;13329;48.402;11.718;2023-07-13T05:56:26;4.63;;;2.43;;
25391;SDS011;13329;48.402;11.718;2023-07-13T05:58:51;7.53;;;2.70;;
25391;SDS011;13329;48.402;11.718;2023-07-13T06:01:16;6.17;;;2.73;;
25391;SDS011;13329;48.402;11.718;2023-07-13T06:03:42;6.30;;;2.63;;
25391;SDS011;13329;48.402;11.718;2023-07-13T06:06:08;5.50;;;2.93;;
25391;SDS011;13329;48.402;11.718;2023-07-13T06:08:33;5.88;;;2.95;;
25391;SDS011;13329;48.402;11.718;2023-07-13T06:11:06;8.73;;;2.63;;
25391;SDS011;13329;48.402;11.718;2023-07-13T06:13:32;7.78;;;2.80;;
25391;SDS011;13329;48.402;11.718;2023-07-13T06:15:58;3.97;;;2.17;;
25391;SDS011;13329;48.402;11.718;2023-07-13T06:18:23;4.70;;;2.40;;
25391;SDS011;13329;48.402;11.718;2023-07-13T06:20:48;5.60;;;2.00;;
25391;SDS011;13329;48.402;11.718;2023-07-13T06:23:13;4.63;;;1.90;;
25391;SDS011;13329;48.402;11.718;2023-07-13T06:25:39;3.00;;;1.93;;
25391;SDS011;13329;48.402;11.718;2023-07-13T06:28:04;4.65;;;1.90;;
25391;SDS011;13329;48.402;11.718;2023-07-13T06:30:30;5.23;;;1.90;;
25391;SDS011;13329;48.402;11.718;2023-07-13T06:32:56;5.55;;;1.88;;
25391;SDS011;13329;48.402;11.718;2023-07-13T06:35:21;4.17;;;1.87;;
25391;SDS011;13329;48.402;11.718;2023-07-13T06:37:47;2.83;;;1.70;;
25391;SDS011;13329;48.402;11.718;2023-07-13T06:40:12;3.95;;;1.80;;
25391;SDS011;13329;48.402;11.718;2023-07-13T06:42:37;5.77;;;1.77;;
25391;SDS011;13329;48.402;11.718;2023-07-13T06:45:03;4.00;;;2.05;;
25391;SDS011;13329;48.402;11.718;2023-07-13T06:47:28;3.05;;;1.48;;
25391;SDS011;13329;48.402;11.718;2023-07-13T06:49:54;4.67;;;1.87;;
25391;SDS011;13329;48.402;11.718;2023-07-13T06:52:19;5.50;;;1.40;;
25391;SDS011;13329;48.402;11.718;2023-07-13T06:54:44;4.03;;;1.87;;
25391;SDS011;13329;48.402;11.718;2023-07-13T06:57:09;3.60;;;1.40;;
25391;SDS011;13329;48.402;11.718;2023-07-13T06:59:35;2.53;;;1.48;;
25391;SDS011;13329;48.402;11.718;2023-07-13T07:02:00;4.60;;;1.67;;
25391;SDS011;13329;48.402;11.718;2023-07-13T07:04:25;2.93;;;1.50;;
25391;SDS011;13329;48.402;11.718;2023-07-13T07:06:50;6.55;;;1.88;;
25391;SDS011;13329;48.402;11.718;2023-07-13T07:09:16;2.17;;;1.30;;
25391;SDS011;13329;48.402;11.718;2023-07-13T07:11:41;4.45;;;1.70;;
25391;SDS011;13329;48.402;11.718;2023-07-13T07:14:07;4.18;;;1.33;;
25391;SDS011;13329;48.402;11.718;2023-07-13T07:16:32;1.95;;;1.10;;
25391;SDS011;13329;48.402;11.718;2023-07-13T07:18:57;3.83;;;1.50;;
25391;SDS011;13329;48.402;11.718;2023-07-13T07:21:22;3.67;;;1.73;;
25391;SDS011;13329;48.402;11.718;2023-07-13T07:23:48;2.63;;;1.58;;
25391;SDS011;13329;48.402;11.718;2023-07-13T07:26:13;4.67;;;1.73;;
25391;SDS011;13329;48.402;11.718;2023-07-13T07:28:38;3.97;;;1.60;;
25391;SDS011;13329;48.402;11.718;2023-07-13T07:31:04;3.43;;;1.23;;
25391;SDS011;13329;48.402;11.718;2023-07-13T07:33:29;6.70;;;1.50;;
25391;SDS011;13329;48.402;11.718;2023-07-13T07:35:54;5.10;;;1.70;;
25391;SDS011;13329;48.402;11.718;2023-07-13T07:38:19;2.67;;;1.37;;
25391;SDS011;13329;48.402;11.718;2023-07-13T07:40:45;5.28;;;1.63;;
25391;SDS011;13329;48.402;11.718;2023-07-13T07:43:10;1.57;;;1.30;;
25391;SDS011;13329;48.402;11.718;2023-07-13T07:45:36;3.60;;;1.63;;
25391;SDS011;13329;48.402;11.718;2023-07-13T07:48:02;2.03;;;1.45;;
25391;SDS011;13329;48.402;11.718;2023-07-13T07:50:28;4.70;;;1.45;;
25391;SDS011;13329;48.402;11.718;2023-07-13T07:52:54;3.20;;;1.73;;
25391;SDS011;13329;48.402;11.718;2023-07-13T07:55:21;3.60;;;1.55;;
25391;SDS011;13329;48.402;11.718;2023-07-13T07:57:46;2.47;;;1.35;;
25391;SDS011;13329;48.402;11.718;2023-07-13T08:00:11;1.87;;;1.47;;
25391;SDS011;13329;48.402;11.718;2023-07-13T08:02:37;6.78;;;1.50;;
25391;SDS011;13329;48.402;11.718;2023-07-13T08:05:02;2.77;;;1.43;;
25391;SDS011;13329;48.402;11.718;2023-07-13T08:07:27;2.65;;;1.30;;
25391;SDS011;13329;48.402;11.718;2023-07-13T08:09:52;2.90;;;1.33;;
25391;SDS011;13329;48.402;11.718;2023-07-13T08:12:18;1.65;;;1.20;;
25391;SDS011;13329;48.402;11.718;2023-07-13T08:14:43;4.57;;;1.30;;
25391;SDS011;13329;48.402;11.718;2023-07-13T08:17:08;3.00;;;1.30;;
25391;SDS011;13329;48.402;11.718;2023-07-13T08:19:33;3.20;;;1.17;;
25391;SDS011;13329;48.402;11.718;2023-07-13T08:21:58;2.83;;;1.17;;
25391;SDS011;13329;48.402;11.718;2023-07-13T08:24:24;1.73;;;1.20;;
25391;SDS011;13329;48.402;11.718;2023-07-13T08:26:50;1.80;;;1.00;;
25391;SDS011;13329;48.402;11.718;2023-07-13T08:29:15;2.92;;;1.20;;
25391;SDS011;13329;48.402;11.718;2023-07-13T08:31:40;2.90;;;1.50;;
25391;SDS011;13329;48.402;11.718;2023-07-13T08:34:05;5.25;;;1.50;;
25391;SDS011;13329;48.402;11.718;2023-07-13T08:36:31;3.53;;;1.08;;
25391;SDS011;13329;48.402;11.718;2023-07-13T08:38:56;2.83;;;1.50;;
25391;SDS011;13329;48.402;11.718;2023-07-13T08:41:21;6.18;;;1.20;;
25391;SDS011;13329;48.402;11.718;2023-07-13T08:43:47;1.87;;;1.10;;
25391;SDS011;13329;48.402;11.718;2023-07-13T08:48:49;1.52;;;0.80;;
25391;SDS011;13329;48.402;11.718;2023-07-13T08:54:00;1.85;;;0.98;;
25391;SDS011;13329;48.402;11.718;2023-07-13T08:56:26;2.53;;;0.98;;
25391;SDS011;13329;48.402;11.718;2023-07-13T08:58:56;4.30;;;1.40;;
25391;SDS011;13329;48.402;11.718;2023-07-13T09:01:23;3.42;;;1.30;;
25391;SDS011;13329;48.402;11.718;2023-07-13T09:03:56;1.50;;;1.30;;
25391;SDS011;13329;48.402;11.718;2023-07-13T09:06:27;1.95;;;1.20;;
25391;SDS011;13329;48.402;11.718;2023-07-13T09:08:58;3.88;;;1.80;;
25391;SDS011;13329;48.402;11.718;2023-07-13T09:16:21;7.80;;;1.93;;
25391;SDS011;13329;48.402;11.718;2023-07-13T09:18:47;4.90;;;1.33;;
25391;SDS011;13329;48.402;11.718;2023-07-13T09:21:16;3.08;;;1.27;;
25391;SDS011;13329;48.402;11.718;2023-07-13T09:23:42;1.90;;;1.33;;
25391;SDS011;13329;48.402;11.718;2023-07-13T09:26:13;4.50;;;1.40;;
25391;SDS011;13329;48.402;11.718;2023-07-13T09:28:40;2.85;;;1.23;;
25391;SDS011;13329;48.402;11.718;2023-07-13T09:31:23;1.92;;;1.33;;
25391;SDS011;13329;48.402;11.718;2023-07-13T09:33:48;1.85;;;1.20;;
25391;SDS011;13329;48.402;11.718;2023-07-13T09:36:26;3.75;;;1.20;;
25391;SDS011;13329;48.402;11.718;2023-07-13T09:41:33;2.67;;;1.05;;
25391;SDS011;13329;48.402;11.718;2023-07-13T09:44:06;6.63;;;1.23;;
25391;SDS011;13329;48.402;11.718;2023-07-13T09:46:34;2.28;;;1.25;;
25391;SDS011;13329;48.402;11.718;2023-07-13T09:48:59;1.88;;;1.27;;
25391;SDS011;13329;48.402;11.718;2023-07-13T09:51:24;1.70;;;1.13;;
25391;SDS011;13329;48.402;11.718;2023-07-13T09:53:49;3.07;;;1.10;;
25391;SDS011;13329;48.402;11.718;2023-07-13T09:56:21;1.80;;;1.00;;
25391;SDS011;13329;48.402;11.718;2023-07-13T09:58:47;5.30;;;1.13;;
25391;SDS011;13329;48.402;11.718;2023-07-13T10:01:12;1.95;;;0.88;;
25391;SDS011;13329;48.402;11.718;2023-07-13T10:03:39;2.65;;;1.20;;
25391;SDS011;13329;48.402;11.718;2023-07-13T10:06:14;3.15;;;0.95;;
25391;SDS011;13329;48.402;11.718;2023-07-13T10:08:39;2.08;;;1.23;;
25391;SDS011;13329;48.402;11.718;2023-07-13T10:11:21;4.43;;;1.00;;
25391;SDS011;13329;48.402;11.718;2023-07-13T10:13:56;2.75;;;1.20;;
25391;SDS011;13329;48.402;11.718;2023-07-13T10:16:23;1.67;;;1.05;;
25391;SDS011;13329;48.402;11.718;2023-07-13T10:18:50;2.95;;;0.82;;
25391;SDS011;13329;48.402;11.718;2023-07-13T10:21:17;2.70;;;0.90;;
25391;SDS011;13329;48.402;11.718;2023-07-13T10:23:43;3.25;;;1.15;;
25391;SDS011;13329;48.402;11.718;2023-07-13T10:26:12;1.58;;;1.00;;
25391;SDS011;13329;48.402;11.718;2023-07-13T10:28:38;4.30;;;1.27;;
25391;SDS011;13329;48.402;11.718;2023-07-13T10:31:04;2.25;;;1.08;;
25391;SDS011;13329;48.402;11.718;2023-07-13T10:33:30;1.20;;;0.90;;
25391;SDS011;13329;48.402;11.718;2023-07-13T10:38:39;2.22;;;1.00;;
25391;SDS011;13329;48.402;11.718;2023-07-13T10:41:07;2.30;;;1.30;;
25391;SDS011;13329;48.402;11.718;2023-07-13T10:43:45;2.80;;;0.88;;
25391;SDS011;13329;48.402;11.718;2023-07-13T10:46:12;3.22;;;1.20;;
25391;SDS011;13329;48.402;11.718;2023-07-13T10:48:38;1.17;;;0.90;;
25391;SDS011;13329;48.402;11.718;2023-07-13T10:51:05;5.32;;;1.23;;
25391;SDS011;13329;48.402;11.718;2023-07-13T10:53:32;0.95;;;0.73;;
25391;SDS011;13329;48.402;11.718;2023-07-13T10:58:37;4.82;;;0.90;;
25391;SDS011;13329;48.402;11.718;2023-07-13T11:03:35;3.42;;;1.13;;
25391;SDS011;13329;48.402;11.718;2023-07-13T11:18:47;4.45;;;1.25;;
25391;SDS011;13329;48.402;11.718;2023-07-13T11:21:14;3.58;;;0.85;;
25391;SDS011;13329;48.402;11.718;2023-07-13T11:23:42;9.93;;;1.27;;
25391;SDS011;13329;48.402;11.718;2023-07-13T11:26:37;2.38;;;0.88;;
25391;SDS011;13329;48.402;11.718;2023-07-13T11:28:53;2.88;;;1.13;;
25391;SDS011;13329;48.402;11.718;2023-07-13T11:31:18;5.80;;;1.00;;
25391;SDS011;13329;48.402;11.718;2023-07-13T11:33:51;3.30;;;1.20;;
25391;SDS011;13329;48.402;11.718;2023-07-13T11:36:17;3.90;;;1.45;;
25391;SDS011;13329;48.402;11.718;2023-07-13T11:41:42;2.33;;;0.80;;
25391;SDS011;13329;48.402;11.718;2023-07-13T11:44:15;4.55;;;1.00;;
25391;SDS011;13329;48.402;11.718;2023-07-13T11:49:06;2.22;;;0.90;;
25391;SDS011;13329;48.402;11.718;2023-07-13T11:51:33;2.15;;;0.80;;
25391;SDS011;13329;48.402;11.718;2023-07-13T11:54:01;1.90;;;0.80;;
25391;SDS011;13329;48.402;11.718;2023-07-13T11:56:27;2.70;;;1.13;;
25391;SDS011;13329;48.402;11.718;2023-07-13T11:58:53;1.87;;;0.70;;
25391;SDS011;13329;48.402;11.718;2023-07-13T12:01:21;2.22;;;0.90;;
25391;SDS011;13329;48.402;11.718;2023-07-13T12:03:46;1.90;;;0.90;;
25391;SDS011;13329;48.402;11.718;2023-07-13T12:06:21;1.65;;;0.73;;
25391;SDS011;13329;48.402;11.718;2023-07-13T12:08:48;1.80;;;0.80;;
25391;SDS011;13329;48.402;11.718;2023-07-13T12:11:17;1.53;;;0.90;;
25391;SDS011;13329;48.402;11.718;2023-07-13T12:13:43;3.22;;;1.05;;
25391;SDS011;13329;48.402;11.718;2023-07-13T12:16:14;2.35;;;0.80;;
25391;SDS011;13329;48.402;11.718;2023-07-13T12:18:40;1.40;;;0.75;;
25391;SDS011;13329;48.402;11.718;2023-07-13T12:21:09;1.58;;;0.70;;
25391;SDS011;13329;48.402;11.718;2023-07-13T12:23:36;1.27;;;0.77;;
25391;SDS011;13329;48.402;11.718;2023-07-13T12:26:02;0.80;;;0.67;;
25391;SDS011;13329;48.402;11.718;2023-07-13T12:28:32;2.10;;;0.80;;
25391;SDS011;13329;48.402;11.718;2023-07-13T12:30:58;1.88;;;0.80;;
25391;SDS011;13329;48.402;11.718;2023-07-13T12:33:24;3.58;;;0.77;;
25391;SDS011;13329;48.402;11.718;2023-07-13T12:35:50;2.45;;;1.00;;
25391;SDS011;13329;48.402;11.718;2023-07-13T12:38:17;1.10;;;0.70;;
25391;SDS011;13329;48.402;11.718;2023-07-13T12:40:42;0.82;;;0.73;;
25391;SDS011;13329;48.402;11.718;2023-07-13T12:43:11;1.27;;;0.65;;
25391;SDS011;13329;48.402;11.718;2023-07-13T12:45:37;2.28;;;1.10;;
25391;SDS011;13329;48.402;11.718;2023-07-13T12:48:04;0.70;;;0.70;;
25391;SDS011;13329;48.402;11.718;2023-07-13T12:50:33;2.53;;;1.05;;
25391;SDS011;13329;48.402;11.718;2023-07-13T12:53:02;1.75;;;0.95;;
25391;SDS011;13329;48.402;11.718;2023-07-13T12:55:28;1.40;;;1.00;;
25391;SDS011;13329;48.402;11.718;2023-07-13T12:57:57;1.05;;;0.70;;
25391;SDS011;13329;48.402;11.718;2023-07-13T13:00:28;1.35;;;0.90;;
25391;SDS011;13329;48.402;11.718;2023-07-13T13:02:55;1.33;;;0.77;;
25391;SDS011;13329;48.402;11.718;2023-07-13T13:05:21;3.72;;;1.27;;
25391;SDS011;13329;48.402;11.718;2023-07-13T13:07:48;2.17;;;1.08;;
25391;SDS011;13329;48.402;11.718;2023-07-13T13:10:13;1.77;;;0.83;;
25391;SDS011;13329;48.402;11.718;2023-07-13T13:12:39;1.45;;;1.00;;
25391;SDS011;13329;48.402;11.718;2023-07-13T13:15:04;2.35;;;1.25;;
25391;SDS011;13329;48.402;11.718;2023-07-13T13:17:31;1.63;;;1.20;;
25391;SDS011;13329;48.402;11.718;2023-07-13T13:19:57;3.17;;;1.50;;
25391;SDS011;13329;48.402;11.718;2023-07-13T13:22:22;2.23;;;1.20;;
25391;SDS011;13329;48.402;11.718;2023-07-13T13:24:47;1.55;;;1.10;;
25391;SDS011;13329;48.402;11.718;2023-07-13T13:27:17;2.40;;;0.95;;
25391;SDS011;13329;48.402;11.718;2023-07-13T13:29:43;5.05;;;0.93;;
25391;SDS011;13329;48.402;11.718;2023-07-13T13:32:10;6.95;;;1.00;;
25391;SDS011;13329;48.402;11.718;2023-07-13T13:34:36;1.58;;;0.82;;
25391;SDS011;13329;48.402;11.718;2023-07-13T13:37:01;2.53;;;1.10;;
25391;SDS011;13329;48.402;11.718;2023-07-13T13:41:55;2.33;;;0.90;;
25391;SDS011;13329;48.402;11.718;2023-07-13T13:44:21;3.17;;;1.00;;
25391;SDS011;13329;48.402;11.718;2023-07-13T13:46:50;1.00;;;0.82;;
25391;SDS011;13329;48.402;11.718;2023-07-13T13:49:17;4.40;;;1.00;;
25391;SDS011;13329;48.402;11.718;2023-07-13T13:51:43;3.85;;;1.10;;
25391;SDS011;13329;48.402;11.718;2023-07-13T13:54:10;1.83;;;1.13;;
25391;SDS011;13329;48.402;11.718;2023-07-13T13:56:35;3.63;;;0.90;;
25391;SDS011;13329;48.402;11.718;2023-07-13T13:59:00;2.53;;;0.97;;
25391;SDS011;13329;48.402;11.718;2023-07-13T14:01:25;2.40;;;1.30;;
25391;SDS011;13329;48.402;11.718;2023-07-13T14:03:51;5.73;;;1.07;;
25391;SDS011;13329;48.402;11.718;2023-07-13T14:06:19;3.10;;;1.23;;
25391;SDS011;13329;48.402;11.718;2023-07-13T14:08:44;1.48;;;0.80;;
25391;SDS011;13329;48.402;11.718;2023-07-13T14:11:11;0.87;;;0.67;;
25391;SDS011;13329;48.402;11.718;2023-07-13T14:13:38;2.70;;;1.02;;
25391;SDS011;13329;48.402;11.718;2023-07-13T14:16:09;2.78;;;1.00;;
25391;SDS011;13329;48.402;11.718;2023-07-13T14:18:34;2.40;;;1.23;;
25391;SDS011;13329;48.402;11.718;2023-07-13T14:20:59;3.60;;;1.03;;
25391;SDS011;13329;48.402;11.718;2023-07-13T14:23:25;1.80;;;1.10;;
25391;SDS011;13329;48.402;11.718;2023-07-13T14:25:50;1.80;;;1.20;;
25391;SDS011;13329;48.402;11.718;2023-07-13T14:28:19;4.25;;;0.95;;
25391;SDS011;13329;48.402;11.718;2023-07-13T14:30:45;3.38;;;1.27;;
25391;SDS011;13329;48.402;11.718;2023-07-13T14:33:12;3.20;;;1.00;;
25391;SDS011;13329;48.402;11.718;2023-07-13T14:35:37;1.15;;;0.82;;
25391;SDS011;13329;48.402;11.718;2023-07-13T14:38:03;1.50;;;0.93;;
25391;SDS011;13329;48.402;11.718;2023-07-13T14:40:29;2.75;;;1.27;;
25391;SDS011;13329;48.402;11.718;2023-07-13T14:42:55;4.28;;;1.30;;
25391;SDS011;13329;48.402;11.718;2023-07-13T14:45:20;1.93;;;1.13;;
25391;SDS011;13329;48.402;11.718;2023-07-13T14:47:45;5.25;;;1.48;;
25391;SDS011;13329;48.402;11.718;2023-07-13T14:50:12;1.38;;;0.88;;
25391;SDS011;13329;48.402;11.718;2023-07-13T14:52:38;4.43;;;1.05;;
25391;SDS011;13329;48.402;11.718;2023-07-13T14:55:04;2.22;;;1.10;;
25391;SDS011;13329;48.402;11.718;2023-07-13T14:57:29;1.27;;;0.80;;
25391;SDS011;13329;48.402;11.718;2023-07-13T14:59:54;1.90;;;0.93;;
25391;SDS011;13329;48.402;11.718;2023-07-13T15:02:25;6.80;;;1.30;;
25391;SDS011;13329;48.402;11.718;2023-07-13T15:04:51;2.55;;;1.20;;
25391;SDS011;13329;48.402;11.718;2023-07-13T15:07:17;2.33;;;1.10;;
25391;SDS011;13329;48.402;11.718;2023-07-13T15:09:43;2.28;;;1.10;;
25391;SDS011;13329;48.402;11.718;2023-07-13T15:12:09;3.97;;;1.30;;